sensor_id;sensor_type;location;lat;lon;timestamp;pressure;altitude;pressure_sealevel;temperature;humidity
50087;BME280;35967;50.718;7.050;2022-08-19T00:00:30;100460.28;;;22.24;60.96
50087;BME280;35967;50.718;7.050;2022-08-19T00:10:32;100456.06;;;22.10;61.25
50087;BME280;35967;50.718;7.050;2022-08-19T00:20:36;100471.19;;;22.06;61.41
50087;BME280;35967;50.718;7.050;2022-08-19T00:30:40;100465.75;;;22.21;61.04
50087;BME280;35967;50.718;7.050;2022-08-19T00:40:43;100474.31;;;22.47;60.42
50087;BME280;35967;50.718;7.050;2022-08-19T00:50:50;100478.00;;;22.45;60.75
50087;BME280;35967;50.718;7.050;2022-08-19T01:00:54;100473.97;;;22.28;61.00
50087;BME280;35967;50.718;7.050;2022-08-19T01:10:58;100472.09;;;21.94;62.24
50087;BME280;35967;50.718;7.050;2022-08-19T01:21:06;100454.38;;;21.73;63.24
50087;BME280;35967;50.718;7.050;2022-08-19T01:31:16;100451.50;;;21.77;63.18
50087;BME280;35967;50.718;7.050;2022-08-19T01:41:28;100449.69;;;21.90;62.45
50087;BME280;35967;50.718;7.050;2022-08-19T01:51:30;100452.84;;;22.06;62.43
50087;BME280;35967;50.718;7.050;2022-08-19T02:01:40;100464.00;;;21.97;61.95
50087;BME280;35967;50.718;7.050;2022-08-19T02:11:43;100463.66;;;21.78;63.12
50087;BME280;35967;50.718;7.050;2022-08-19T02:21:45;100464.34;;;21.18;65.47
50087;BME280;35967;50.718;7.050;2022-08-19T02:31:48;100458.47;;;21.15;65.66
50087;BME280;35967;50.718;7.050;2022-08-19T02:41:50;100467.38;;;21.25;65.60
50087;BME280;35967;50.718;7.050;2022-08-19T02:51:53;100471.06;;;21.22;65.26
50087;BME280;35967;50.718;7.050;2022-08-19T03:01:56;100474.94;;;21.54;64.13
50087;BME280;35967;50.718;7.050;2022-08-19T03:11:58;100478.72;;;21.63;64.13
50087;BME280;35967;50.718;7.050;2022-08-19T03:22:00;100478.81;;;21.11;66.20
50087;BME280;35967;50.718;7.050;2022-08-19T03:32:04;100484.44;;;21.31;65.77
50087;BME280;35967;50.718;7.050;2022-08-19T03:42:08;100488.81;;;21.30;65.82
50087;BME280;35967;50.718;7.050;2022-08-19T03:52:29;100497.19;;;21.35;65.46
50087;BME280;35967;50.718;7.050;2022-08-19T04:02:32;100490.56;;;20.39;68.65
50087;BME280;35967;50.718;7.050;2022-08-19T04:12:33;100507.41;;;21.01;66.71
50087;BME280;35967;50.718;7.050;2022-08-19T04:22:35;100512.00;;;20.85;67.86
50087;BME280;35967;50.718;7.050;2022-08-19T04:32:37;100502.19;;;20.48;68.95
50087;BME280;35967;50.718;7.050;2022-08-19T04:42:40;100506.97;;;20.82;68.35
50087;BME280;35967;50.718;7.050;2022-08-19T04:52:42;100520.91;;;20.95;68.08
50087;BME280;35967;50.718;7.050;2022-08-19T05:02:44;100536.06;;;21.16;67.68
50087;BME280;35967;50.718;7.050;2022-08-19T05:12:47;100547.16;;;21.06;68.71
50087;BME280;35967;50.718;7.050;2022-08-19T05:23:05;100550.41;;;20.97;69.16
50087;BME280;35967;50.718;7.050;2022-08-19T05:33:18;100553.28;;;20.67;71.69
50087;BME280;35967;50.718;7.050;2022-08-19T05:43:20;100558.69;;;20.91;70.89
50087;BME280;35967;50.718;7.050;2022-08-19T05:53:22;100563.56;;;21.60;70.30
50087;BME280;35967;50.718;7.050;2022-08-19T06:03:24;100557.41;;;21.35;70.07
50087;BME280;35967;50.718;7.050;2022-08-19T06:13:26;100561.38;;;21.41;70.46
50087;BME280;35967;50.718;7.050;2022-08-19T06:23:33;100561.78;;;21.73;69.87
50087;BME280;35967;50.718;7.050;2022-08-19T06:33:36;100564.16;;;22.14;68.53
50087;BME280;35967;50.718;7.050;2022-08-19T06:43:39;100561.91;;;22.20;67.63
50087;BME280;35967;50.718;7.050;2022-08-19T06:53:46;100569.91;;;22.19;67.92
50087;BME280;35967;50.718;7.050;2022-08-19T07:03:55;100584.06;;;22.16;68.03
50087;BME280;35967;50.718;7.050;2022-08-19T07:14:05;100575.31;;;23.00;65.77
50087;BME280;35967;50.718;7.050;2022-08-19T07:24:23;100585.84;;;22.64;67.31
50087;BME280;35967;50.718;7.050;2022-08-19T07:34:27;100598.81;;;22.90;66.52
50087;BME280;35967;50.718;7.050;2022-08-19T07:44:29;100597.47;;;23.20;65.72
50087;BME280;35967;50.718;7.050;2022-08-19T07:54:33;100604.88;;;23.72;63.95
50087;BME280;35967;50.718;7.050;2022-08-19T08:04:36;100612.78;;;23.83;63.62
50087;BME280;35967;50.718;7.050;2022-08-19T08:14:59;100611.31;;;23.79;62.48
50087;BME280;35967;50.718;7.050;2022-08-19T08:25:15;100605.66;;;24.50;60.70
50087;BME280;35967;50.718;7.050;2022-08-19T08:35:20;100608.34;;;24.39;61.34
50087;BME280;35967;50.718;7.050;2022-08-19T08:45:23;100626.41;;;24.44;61.30
50087;BME280;35967;50.718;7.050;2022-08-19T08:55:29;100628.66;;;24.81;60.69
50087;BME280;35967;50.718;7.050;2022-08-19T09:05:58;100614.00;;;24.67;58.76
50087;BME280;35967;50.718;7.050;2022-08-19T09:16:06;100610.31;;;25.22;58.17
50087;BME280;35967;50.718;7.050;2022-08-19T09:26:15;100609.78;;;25.49;57.68
50087;BME280;35967;50.718;7.050;2022-08-19T09:36:20;100620.34;;;25.99;55.81
50087;BME280;35967;50.718;7.050;2022-08-19T09:46:35;100611.97;;;25.85;54.10
50087;BME280;35967;50.718;7.050;2022-08-19T09:56:37;100609.31;;;26.16;53.72
50087;BME280;35967;50.718;7.050;2022-08-19T10:06:43;100599.19;;;26.11;50.21
50087;BME280;35967;50.718;7.050;2022-08-19T10:16:47;100600.56;;;26.44;50.42
50087;BME280;35967;50.718;7.050;2022-08-19T10:26:49;100589.03;;;26.75;49.35
50087;BME280;35967;50.718;7.050;2022-08-19T10:36:59;100580.28;;;26.45;49.48
50087;BME280;35967;50.718;7.050;2022-08-19T10:47:11;100583.22;;;26.42;49.41
50087;BME280;35967;50.718;7.050;2022-08-19T10:57:30;100572.25;;;26.76;48.81
50087;BME280;35967;50.718;7.050;2022-08-19T11:07:52;100562.00;;;27.38;46.87
50087;BME280;35967;50.718;7.050;2022-08-19T11:17:54;100556.94;;;26.80;47.88
50087;BME280;35967;50.718;7.050;2022-08-19T11:27:57;100554.53;;;26.86;47.41
50087;BME280;35967;50.718;7.050;2022-08-19T11:37:59;100556.50;;;27.60;45.09
50087;BME280;35967;50.718;7.050;2022-08-19T11:48:08;100545.47;;;27.64;44.62
50087;BME280;35967;50.718;7.050;2022-08-19T11:58:11;100552.53;;;27.92;44.61
50087;BME280;35967;50.718;7.050;2022-08-19T12:08:19;100550.19;;;27.33;44.82
50087;BME280;35967;50.718;7.050;2022-08-19T12:18:22;100541.06;;;28.37;43.57
50087;BME280;35967;50.718;7.050;2022-08-19T12:28:26;100538.59;;;27.53;43.36
50087;BME280;35967;50.718;7.050;2022-08-19T12:38:28;100534.56;;;28.31;43.00
50087;BME280;35967;50.718;7.050;2022-08-19T12:48:32;100518.22;;;28.36;42.04
50087;BME280;35967;50.718;7.050;2022-08-19T12:58:35;100517.81;;;28.49;41.82
50087;BME280;35967;50.718;7.050;2022-08-19T13:08:39;100510.47;;;28.16;41.03
50087;BME280;35967;50.718;7.050;2022-08-19T13:18:42;100510.59;;;28.86;39.56
50087;BME280;35967;50.718;7.050;2022-08-19T13:28:45;100500.78;;;29.04;38.48
50087;BME280;35967;50.718;7.050;2022-08-19T13:39:06;100494.97;;;29.01;39.18
50087;BME280;35967;50.718;7.050;2022-08-19T13:49:10;100489.47;;;29.37;38.00
50087;BME280;35967;50.718;7.050;2022-08-19T13:59:14;100476.44;;;29.09;38.84
50087;BME280;35967;50.718;7.050;2022-08-19T14:09:17;100478.81;;;28.86;37.18
50087;BME280;35967;50.718;7.050;2022-08-19T14:19:18;100492.72;;;29.22;37.20
50087;BME280;35967;50.718;7.050;2022-08-19T14:29:21;100502.19;;;28.90;37.75
50087;BME280;35967;50.718;7.050;2022-08-19T14:39:23;100497.41;;;28.94;36.92
50087;BME280;35967;50.718;7.050;2022-08-19T14:49:25;100494.56;;;28.87;37.07
50087;BME280;35967;50.718;7.050;2022-08-19T14:59:36;100497.13;;;28.71;38.10
50087;BME280;35967;50.718;7.050;2022-08-19T15:09:38;100501.53;;;28.88;37.05
50087;BME280;35967;50.718;7.050;2022-08-19T15:19:41;100505.34;;;28.41;38.02
50087;BME280;35967;50.718;7.050;2022-08-19T15:29:42;100518.13;;;28.46;37.38
50087;BME280;35967;50.718;7.050;2022-08-19T15:39:47;100515.38;;;28.56;36.10
50087;BME280;35967;50.718;7.050;2022-08-19T15:49:49;100532.81;;;28.40;38.04
50087;BME280;35967;50.718;7.050;2022-08-19T15:59:51;100536.84;;;28.08;39.72
50087;BME280;35967;50.718;7.050;2022-08-19T16:10:12;100543.19;;;27.97;40.13
50087;BME280;35967;50.718;7.050;2022-08-19T16:20:28;100550.94;;;27.81;40.94
50087;BME280;35967;50.718;7.050;2022-08-19T16:30:31;100533.34;;;27.90;41.06
50087;BME280;35967;50.718;7.050;2022-08-19T16:40:34;100533.84;;;27.57;41.60
50087;BME280;35967;50.718;7.050;2022-08-19T16:50:36;100533.84;;;27.57;42.47
50087;BME280;35967;50.718;7.050;2022-08-19T17:00:55;100540.69;;;27.50;42.92
50087;BME280;35967;50.718;7.050;2022-08-19T17:11:04;100537.50;;;27.36;44.08
50087;BME280;35967;50.718;7.050;2022-08-19T17:21:24;100547.56;;;27.33;44.93
50087;BME280;35967;50.718;7.050;2022-08-19T17:31:30;100542.69;;;27.00;46.22
50087;BME280;35967;50.718;7.050;2022-08-19T17:41:33;100540.91;;;26.91;47.12
50087;BME280;35967;50.718;7.050;2022-08-19T18:01:43;100538.44;;;26.60;48.62
50087;BME280;35967;50.718;7.050;2022-08-19T18:11:55;100533.59;;;26.55;49.26
50087;BME280;35967;50.718;7.050;2022-08-19T18:21:57;100542.50;;;26.44;49.91
50087;BME280;35967;50.718;7.050;2022-08-19T18:31:59;100560.97;;;26.15;50.38
50087;BME280;35967;50.718;7.050;2022-08-19T18:42:02;100570.56;;;26.26;50.51
50087;BME280;35967;50.718;7.050;2022-08-19T18:52:22;100588.03;;;26.07;51.25
50087;BME280;35967;50.718;7.050;2022-08-19T19:02:26;100589.31;;;26.23;50.82
50087;BME280;35967;50.718;7.050;2022-08-19T19:12:28;100603.59;;;26.10;51.41
50087;BME280;35967;50.718;7.050;2022-08-19T19:22:30;100606.19;;;26.01;51.83
50087;BME280;35967;50.718;7.050;2022-08-19T19:32:33;100611.63;;;25.99;51.89
50087;BME280;35967;50.718;7.050;2022-08-19T19:42:39;100630.97;;;26.19;51.21
50087;BME280;35967;50.718;7.050;2022-08-19T19:52:44;100633.69;;;25.98;51.58
50087;BME280;35967;50.718;7.050;2022-08-19T20:02:48;100643.22;;;25.89;52.53
50087;BME280;35967;50.718;7.050;2022-08-19T20:12:51;100650.03;;;25.51;53.71
50087;BME280;35967;50.718;7.050;2022-08-19T20:22:55;100663.81;;;24.91;56.64
50087;BME280;35967;50.718;7.050;2022-08-19T20:32:57;100666.34;;;25.02;57.59
50087;BME280;35967;50.718;7.050;2022-08-19T20:43:11;100688.06;;;24.95;58.39
50087;BME280;35967;50.718;7.050;2022-08-19T20:53:25;100688.69;;;24.54;60.08
50087;BME280;35967;50.718;7.050;2022-08-19T21:03:36;100701.59;;;24.69;60.19
50087;BME280;35967;50.718;7.050;2022-08-19T21:14:09;100696.66;;;24.64;60.20
50087;BME280;35967;50.718;7.050;2022-08-19T21:24:18;100704.94;;;24.71;60.45
50087;BME280;35967;50.718;7.050;2022-08-19T21:34:30;100699.69;;;24.92;59.72
50087;BME280;35967;50.718;7.050;2022-08-19T21:44:32;100707.56;;;24.71;60.90
50087;BME280;35967;50.718;7.050;2022-08-19T21:54:38;100710.22;;;24.92;60.28
50087;BME280;35967;50.718;7.050;2022-08-19T22:04:40;100714.78;;;24.35;62.97
50087;BME280;35967;50.718;7.050;2022-08-19T22:14:42;100708.94;;;24.31;64.03
50087;BME280;35967;50.718;7.050;2022-08-19T22:24:44;100708.13;;;24.08;66.05
50087;BME280;35967;50.718;7.050;2022-08-19T22:34:47;100708.88;;;23.99;67.02
50087;BME280;35967;50.718;7.050;2022-08-19T22:44:50;100718.50;;;24.21;66.48
50087;BME280;35967;50.718;7.050;2022-08-19T22:54:57;100714.56;;;24.26;66.64
50087;BME280;35967;50.718;7.050;2022-08-19T23:05:09;100714.31;;;23.73;68.64
50087;BME280;35967;50.718;7.050;2022-08-19T23:15:21;100716.59;;;23.77;69.90
50087;BME280;35967;50.718;7.050;2022-08-19T23:25:28;100711.69;;;23.84;69.61
50087;BME280;35967;50.718;7.050;2022-08-19T23:35:34;100717.16;;;23.70;69.65
50087;BME280;35967;50.718;7.050;2022-08-19T23:45:45;100708.88;;;23.40;70.95
50087;BME280;35967;50.718;7.050;2022-08-19T23:55:52;100706.16;;;23.53;70.51
